Mahaffey, PA (15757)

5:41 AM EST on February 09, 2016 (GMT -0500)
NE Indiana County Pa. | | Change Station
CLOSE
Current Station
Personal Weather Station
Location: Cherry Tree, PA
Elevation: 1601 ft
Nearby Weather Stations

Elev 1601 ft 40.78 °N, 78.81 °W | Updated 4 seconds ago

Overcast
Overcast
32.5 °F
Feels Like 32 °F
N
0.0
Wind Variable Wind from ESE
Gusts 0.0 mph

Today
High -- | Low -- °F
--% Chance of Precip.
Yesterday
High -- | Low -- °F
Precip. -- in
Pressure 29.50 in
Visibility 6.0 miles
Clouds Scattered Clouds 2400 ft
Scattered Clouds 3000 ft
Overcast 5000 ft
Windchill 32 °F
Dew Point 31 °F
Humidity 95%
Rainfall 0.00 in
Snow Depth Not available.
7:17 AM 5:41 PM
New Moon, 1% visible
SPECI KFIG 091001Z AUTO 00000KT 6SM BR SCT024 SCT030 OVC050 M01/M02 A2950 RMK AO2 T10061022
Pressure 29.50 in
Visibility 6.0 miles
Clouds Scattered Clouds 2400 ft
Scattered Clouds 3000 ft
Overcast 5000 ft
Windchill 32 °F
Dew Point 31 °F
Humidity 95%
Rainfall 0.00 in
Snow Depth Not available.
7:17 AM 5:41 PM
New Moon, 1% visible
SPECI KFIG 091001Z AUTO 00000KT 6SM BR SCT024 SCT030 OVC050 M01/M02 A2950 RMK AO2 T10061022

10-Day Weather Forecast

Almanac

Astronomy

Feb. 09, 2016 Rise Set
Actual Time
Civil Twilight
Nautical Twilight
Astronomical Twilight
Moon
Length of Visible Light
Length of Day
Tomorrow will be .
, % of the Moon is Illuminated

Today's Extremes

State Highs State Lows

Community

WunderPhotos

Upload Photos

1,891,565 photos uploaded!

WunderBlog® & News

Nearby

Air Quality

  Air Quality AQ Index Pollutant
Not available.

Snow Depth

Station Depth Elevation

Earthquake Activity

City Distance Mag. Time & Date
Minimum magnitude displayed is 2.5.

Coastal Water Temperatures

Place Temperature

Stations

Nearby Weather Stations

Station Location Temp. Windchill Dew Point Humidity Wind Precip. Elev Updated Type
                   

Watches & Warnings

There are currently no watches in effect.